sensor_id;sensor_type;location;lat;lon;timestamp;temperature;humidity
68691;DHT22;55675;49.588;8.640;2022-12-08T00:01:32;6.40;91.20
68691;DHT22;55675;49.588;8.640;2022-12-08T00:03:59;6.40;91.20
68691;DHT22;55675;49.588;8.640;2022-12-08T00:06:36;6.30;91.00
68691;DHT22;55675;49.588;8.640;2022-12-08T00:09:41;6.30;91.00
68691;DHT22;55675;49.588;8.640;2022-12-08T00:12:12;6.30;91.10
68691;DHT22;55675;49.588;8.640;2022-12-08T00:14:42;6.30;91.10
68691;DHT22;55675;49.588;8.640;2022-12-08T00:17:09;6.30;91.10
68691;DHT22;55675;49.588;8.640;2022-12-08T00:19:35;6.30;91.20
68691;DHT22;55675;49.588;8.640;2022-12-08T00:22:01;6.30;91.30
68691;DHT22;55675;49.588;8.640;2022-12-08T00:24:34;6.40;91.30
68691;DHT22;55675;49.588;8.640;2022-12-08T00:27:02;6.40;91.20
68691;DHT22;55675;49.588;8.640;2022-12-08T00:29:28;6.40;91.10
68691;DHT22;55675;49.588;8.640;2022-12-08T00:31:53;6.30;91.10
68691;DHT22;55675;49.588;8.640;2022-12-08T00:34:19;6.30;91.10
68691;DHT22;55675;49.588;8.640;2022-12-08T00:36:45;6.40;91.20
68691;DHT22;55675;49.588;8.640;2022-12-08T00:39:12;6.40;91.30
68691;DHT22;55675;49.588;8.640;2022-12-08T00:41:38;6.30;91.20
68691;DHT22;55675;49.588;8.640;2022-12-08T00:44:22;6.30;91.30
68691;DHT22;55675;49.588;8.640;2022-12-08T00:46:48;6.40;91.30
68691;DHT22;55675;49.588;8.640;2022-12-08T00:49:15;6.40;91.30
68691;DHT22;55675;49.588;8.640;2022-12-08T00:51:41;6.40;91.10
68691;DHT22;55675;49.588;8.640;2022-12-08T00:54:07;6.40;91.20
68691;DHT22;55675;49.588;8.640;2022-12-08T00:56:33;6.40;91.20
68691;DHT22;55675;49.588;8.640;2022-12-08T00:58:59;6.40;91.10
68691;DHT22;55675;49.588;8.640;2022-12-08T01:01:25;6.40;91.10
68691;DHT22;55675;49.588;8.640;2022-12-08T01:03:51;6.40;91.10
68691;DHT22;55675;49.588;8.640;2022-12-08T01:06:17;6.30;91.20
68691;DHT22;55675;49.588;8.640;2022-12-08T01:08:43;6.30;91.20
68691;DHT22;55675;49.588;8.640;2022-12-08T01:11:11;6.40;91.20
68691;DHT22;55675;49.588;8.640;2022-12-08T01:13:38;6.30;91.00
68691;DHT22;55675;49.588;8.640;2022-12-08T01:16:04;6.30;91.00
68691;DHT22;55675;49.588;8.640;2022-12-08T01:18:29;6.30;91.10
68691;DHT22;55675;49.588;8.640;2022-12-08T01:21:04;6.30;91.20
68691;DHT22;55675;49.588;8.640;2022-12-08T01:23:29;6.30;91.20
68691;DHT22;55675;49.588;8.640;2022-12-08T01:25:59;6.30;91.30
68691;DHT22;55675;49.588;8.640;2022-12-08T01:28:25;6.30;91.20
68691;DHT22;55675;49.588;8.640;2022-12-08T01:30:50;6.20;91.60
68691;DHT22;55675;49.588;8.640;2022-12-08T01:33:16;6.20;91.30
68691;DHT22;55675;49.588;8.640;2022-12-08T01:35:41;6.20;91.20
68691;DHT22;55675;49.588;8.640;2022-12-08T01:38:07;6.20;91.30
68691;DHT22;55675;49.588;8.640;2022-12-08T01:40:32;6.10;91.40
68691;DHT22;55675;49.588;8.640;2022-12-08T01:42:58;6.10;91.40
68691;DHT22;55675;49.588;8.640;2022-12-08T01:45:28;6.10;91.50
68691;DHT22;55675;49.588;8.640;2022-12-08T01:48:02;6.00;91.60
68691;DHT22;55675;49.588;8.640;2022-12-08T01:50:29;6.00;91.70
68691;DHT22;55675;49.588;8.640;2022-12-08T01:53:00;6.00;91.60
68691;DHT22;55675;49.588;8.640;2022-12-08T01:55:56;6.00;91.60
68691;DHT22;55675;49.588;8.640;2022-12-08T01:58:31;6.00;91.60
68691;DHT22;55675;49.588;8.640;2022-12-08T02:00:59;6.00;91.60
68691;DHT22;55675;49.588;8.640;2022-12-08T02:03:28;6.00;91.50
68691;DHT22;55675;49.588;8.640;2022-12-08T02:05:55;6.00;91.60
68691;DHT22;55675;49.588;8.640;2022-12-08T02:08:22;6.00;91.70
68691;DHT22;55675;49.588;8.640;2022-12-08T02:10:49;6.00;91.60
68691;DHT22;55675;49.588;8.640;2022-12-08T02:13:17;6.00;91.60
68691;DHT22;55675;49.588;8.640;2022-12-08T02:20:57;5.90;91.80
68691;DHT22;55675;49.588;8.640;2022-12-08T02:29:31;6.00;91.60
68691;DHT22;55675;49.588;8.640;2022-12-08T02:37:49;5.90;91.50
68691;DHT22;55675;49.588;8.640;2022-12-08T02:40:22;5.90;91.60
68691;DHT22;55675;49.588;8.640;2022-12-08T02:43:15;5.90;91.60
68691;DHT22;55675;49.588;8.640;2022-12-08T02:45:51;6.00;91.60
68691;DHT22;55675;49.588;8.640;2022-12-08T02:48:18;5.90;91.50
68691;DHT22;55675;49.588;8.640;2022-12-08T02:50:44;5.90;91.60
68691;DHT22;55675;49.588;8.640;2022-12-08T02:53:09;5.90;91.60
68691;DHT22;55675;49.588;8.640;2022-12-08T02:55:54;6.00;91.50
68691;DHT22;55675;49.588;8.640;2022-12-08T03:01:50;5.90;91.60
68691;DHT22;55675;49.588;8.640;2022-12-08T03:07:06;5.90;91.80
68691;DHT22;55675;49.588;8.640;2022-12-08T03:09:37;5.90;91.80
68691;DHT22;55675;49.588;8.640;2022-12-08T03:14:37;5.80;92.00
68691;DHT22;55675;49.588;8.640;2022-12-08T03:17:05;5.80;92.00
68691;DHT22;55675;49.588;8.640;2022-12-08T03:19:34;5.80;92.00
68691;DHT22;55675;49.588;8.640;2022-12-08T03:22:03;5.80;91.90
68691;DHT22;55675;49.588;8.640;2022-12-08T03:24:38;5.90;91.90
68691;DHT22;55675;49.588;8.640;2022-12-08T03:27:07;5.90;91.80
68691;DHT22;55675;49.588;8.640;2022-12-08T03:29:34;5.90;91.80
68691;DHT22;55675;49.588;8.640;2022-12-08T03:32:28;5.90;91.90
68691;DHT22;55675;49.588;8.640;2022-12-08T03:34:55;5.90;91.90
68691;DHT22;55675;49.588;8.640;2022-12-08T03:37:22;6.00;91.80
68691;DHT22;55675;49.588;8.640;2022-12-08T03:39:48;6.00;91.70
68691;DHT22;55675;49.588;8.640;2022-12-08T03:42:14;6.00;91.80
68691;DHT22;55675;49.588;8.640;2022-12-08T03:44:39;6.00;91.80
68691;DHT22;55675;49.588;8.640;2022-12-08T03:47:05;6.00;91.70
68691;DHT22;55675;49.588;8.640;2022-12-08T03:49:30;6.00;91.70
68691;DHT22;55675;49.588;8.640;2022-12-08T03:51:56;5.90;91.80
68691;DHT22;55675;49.588;8.640;2022-12-08T03:54:21;5.90;91.80
68691;DHT22;55675;49.588;8.640;2022-12-08T03:56:48;5.90;91.80
68691;DHT22;55675;49.588;8.640;2022-12-08T03:59:14;5.90;91.80
68691;DHT22;55675;49.588;8.640;2022-12-08T04:01:39;5.90;91.80
68691;DHT22;55675;49.588;8.640;2022-12-08T04:04:05;5.80;91.90
68691;DHT22;55675;49.588;8.640;2022-12-08T04:06:30;5.80;91.90
68691;DHT22;55675;49.588;8.640;2022-12-08T04:08:56;5.80;92.00
68691;DHT22;55675;49.588;8.640;2022-12-08T04:11:21;5.80;92.00
68691;DHT22;55675;49.588;8.640;2022-12-08T04:13:47;5.90;92.00
68691;DHT22;55675;49.588;8.640;2022-12-08T04:16:18;5.90;92.00
68691;DHT22;55675;49.588;8.640;2022-12-08T04:18:44;5.90;92.00
68691;DHT22;55675;49.588;8.640;2022-12-08T04:21:10;5.90;91.90
68691;DHT22;55675;49.588;8.640;2022-12-08T04:23:35;5.90;91.80
68691;DHT22;55675;49.588;8.640;2022-12-08T04:26:01;5.80;91.90
68691;DHT22;55675;49.588;8.640;2022-12-08T04:28:27;5.80;92.10
68691;DHT22;55675;49.588;8.640;2022-12-08T04:30:54;5.80;92.10
68691;DHT22;55675;49.588;8.640;2022-12-08T04:33:19;5.80;92.20
68691;DHT22;55675;49.588;8.640;2022-12-08T04:35:45;5.80;92.20
68691;DHT22;55675;49.588;8.640;2022-12-08T04:38:11;5.70;92.20
68691;DHT22;55675;49.588;8.640;2022-12-08T04:40:37;5.60;92.30
68691;DHT22;55675;49.588;8.640;2022-12-08T04:43:02;5.60;92.50
68691;DHT22;55675;49.588;8.640;2022-12-08T04:45:28;5.70;92.60
68691;DHT22;55675;49.588;8.640;2022-12-08T04:47:53;5.70;92.90
68691;DHT22;55675;49.588;8.640;2022-12-08T04:50:19;5.70;92.50
68691;DHT22;55675;49.588;8.640;2022-12-08T04:52:44;5.80;92.40
68691;DHT22;55675;49.588;8.640;2022-12-08T04:55:10;5.80;92.30
68691;DHT22;55675;49.588;8.640;2022-12-08T04:57:35;5.80;92.30
68691;DHT22;55675;49.588;8.640;2022-12-08T05:00:02;5.80;92.30
68691;DHT22;55675;49.588;8.640;2022-12-08T05:02:28;5.80;92.40
68691;DHT22;55675;49.588;8.640;2022-12-08T05:04:53;5.80;92.50
68691;DHT22;55675;49.588;8.640;2022-12-08T05:07:19;5.80;92.50
68691;DHT22;55675;49.588;8.640;2022-12-08T05:09:44;5.80;92.50
68691;DHT22;55675;49.588;8.640;2022-12-08T05:12:10;5.80;92.50
68691;DHT22;55675;49.588;8.640;2022-12-08T05:14:35;5.80;92.40
68691;DHT22;55675;49.588;8.640;2022-12-08T05:17:01;5.70;92.20
68691;DHT22;55675;49.588;8.640;2022-12-08T05:19:26;5.80;92.40
68691;DHT22;55675;49.588;8.640;2022-12-08T05:21:52;5.80;92.50
68691;DHT22;55675;49.588;8.640;2022-12-08T05:24:17;5.80;92.60
68691;DHT22;55675;49.588;8.640;2022-12-08T05:26:43;5.80;92.50
68691;DHT22;55675;49.588;8.640;2022-12-08T05:29:08;5.80;92.40
68691;DHT22;55675;49.588;8.640;2022-12-08T05:31:33;5.80;92.40
68691;DHT22;55675;49.588;8.640;2022-12-08T05:33:59;5.80;92.40
68691;DHT22;55675;49.588;8.640;2022-12-08T05:36:25;5.70;92.40
68691;DHT22;55675;49.588;8.640;2022-12-08T05:38:50;5.70;92.40
68691;DHT22;55675;49.588;8.640;2022-12-08T05:41:19;5.70;92.40
68691;DHT22;55675;49.588;8.640;2022-12-08T05:43:45;5.70;92.30
68691;DHT22;55675;49.588;8.640;2022-12-08T05:46:11;5.70;92.40
68691;DHT22;55675;49.588;8.640;2022-12-08T05:48:36;5.60;92.40
68691;DHT22;55675;49.588;8.640;2022-12-08T05:51:03;5.60;92.50
68691;DHT22;55675;49.588;8.640;2022-12-08T05:53:29;5.60;92.70
68691;DHT22;55675;49.588;8.640;2022-12-08T05:55:54;5.60;92.70
68691;DHT22;55675;49.588;8.640;2022-12-08T05:58:21;5.50;92.60
68691;DHT22;55675;49.588;8.640;2022-12-08T06:00:48;5.50;92.70
68691;DHT22;55675;49.588;8.640;2022-12-08T06:03:15;5.50;92.80
68691;DHT22;55675;49.588;8.640;2022-12-08T06:05:42;5.50;92.80
68691;DHT22;55675;49.588;8.640;2022-12-08T06:08:08;5.60;92.80
68691;DHT22;55675;49.588;8.640;2022-12-08T06:10:33;5.60;92.70
68691;DHT22;55675;49.588;8.640;2022-12-08T06:12:59;5.60;92.80
68691;DHT22;55675;49.588;8.640;2022-12-08T06:15:25;5.60;92.90
68691;DHT22;55675;49.588;8.640;2022-12-08T06:17:50;5.60;92.90
68691;DHT22;55675;49.588;8.640;2022-12-08T06:20:16;5.60;92.70
68691;DHT22;55675;49.588;8.640;2022-12-08T06:22:41;5.60;92.70
68691;DHT22;55675;49.588;8.640;2022-12-08T06:25:07;5.60;92.60
68691;DHT22;55675;49.588;8.640;2022-12-08T06:27:33;5.60;92.50
68691;DHT22;55675;49.588;8.640;2022-12-08T06:29:59;5.60;92.60
68691;DHT22;55675;49.588;8.640;2022-12-08T06:32:24;5.60;92.50
68691;DHT22;55675;49.588;8.640;2022-12-08T06:34:51;5.70;92.60
68691;DHT22;55675;49.588;8.640;2022-12-08T06:37:17;5.70;92.60
68691;DHT22;55675;49.588;8.640;2022-12-08T06:39:42;5.70;92.50
68691;DHT22;55675;49.588;8.640;2022-12-08T06:42:08;5.70;92.40
68691;DHT22;55675;49.588;8.640;2022-12-08T06:44:52;5.60;92.30
68691;DHT22;55675;49.588;8.640;2022-12-08T06:47:20;5.60;92.40
68691;DHT22;55675;49.588;8.640;2022-12-08T06:49:45;5.60;92.40
68691;DHT22;55675;49.588;8.640;2022-12-08T06:52:11;5.60;92.40
68691;DHT22;55675;49.588;8.640;2022-12-08T06:54:36;5.60;92.40
68691;DHT22;55675;49.588;8.640;2022-12-08T06:57:02;5.60;92.40
68691;DHT22;55675;49.588;8.640;2022-12-08T06:59:27;5.60;92.20
68691;DHT22;55675;49.588;8.640;2022-12-08T07:01:54;5.60;92.40
68691;DHT22;55675;49.588;8.640;2022-12-08T07:04:19;5.70;92.40
68691;DHT22;55675;49.588;8.640;2022-12-08T07:06:45;5.70;92.40
68691;DHT22;55675;49.588;8.640;2022-12-08T07:09:10;5.70;92.40
68691;DHT22;55675;49.588;8.640;2022-12-08T07:11:37;5.70;92.20
68691;DHT22;55675;49.588;8.640;2022-12-08T07:14:03;5.70;92.20
68691;DHT22;55675;49.588;8.640;2022-12-08T07:16:29;5.80;92.20
68691;DHT22;55675;49.588;8.640;2022-12-08T07:18:54;5.80;92.20
68691;DHT22;55675;49.588;8.640;2022-12-08T07:21:20;5.90;92.20
68691;DHT22;55675;49.588;8.640;2022-12-08T07:23:46;5.80;91.80
68691;DHT22;55675;49.588;8.640;2022-12-08T07:26:12;5.80;91.80
68691;DHT22;55675;49.588;8.640;2022-12-08T07:28:39;5.80;91.90
68691;DHT22;55675;49.588;8.640;2022-12-08T07:31:06;5.80;91.90
68691;DHT22;55675;49.588;8.640;2022-12-08T07:33:33;5.80;91.90
68691;DHT22;55675;49.588;8.640;2022-12-08T07:36:01;5.80;91.80
68691;DHT22;55675;49.588;8.640;2022-12-08T07:38:28;5.80;91.90
68691;DHT22;55675;49.588;8.640;2022-12-08T07:40:54;5.80;92.00
68691;DHT22;55675;49.588;8.640;2022-12-08T07:43:20;5.80;91.90
68691;DHT22;55675;49.588;8.640;2022-12-08T07:45:46;5.80;91.70
68691;DHT22;55675;49.588;8.640;2022-12-08T07:48:11;5.80;91.80
68691;DHT22;55675;49.588;8.640;2022-12-08T07:50:38;5.70;91.90
68691;DHT22;55675;49.588;8.640;2022-12-08T07:53:05;5.80;92.10
68691;DHT22;55675;49.588;8.640;2022-12-08T07:55:30;5.80;92.00
68691;DHT22;55675;49.588;8.640;2022-12-08T07:57:56;5.70;91.90
68691;DHT22;55675;49.588;8.640;2022-12-08T08:00:22;5.80;91.90
68691;DHT22;55675;49.588;8.640;2022-12-08T08:02:47;5.80;91.90
68691;DHT22;55675;49.588;8.640;2022-12-08T08:05:13;5.80;91.90
68691;DHT22;55675;49.588;8.640;2022-12-08T08:07:39;5.80;92.00
68691;DHT22;55675;49.588;8.640;2022-12-08T08:10:10;5.80;92.00
68691;DHT22;55675;49.588;8.640;2022-12-08T08:12:37;5.80;92.00
68691;DHT22;55675;49.588;8.640;2022-12-08T08:15:05;5.80;92.10
68691;DHT22;55675;49.588;8.640;2022-12-08T08:17:35;5.80;92.10
68691;DHT22;55675;49.588;8.640;2022-12-08T08:20:01;5.90;92.10
68691;DHT22;55675;49.588;8.640;2022-12-08T08:22:26;5.90;91.90
68691;DHT22;55675;49.588;8.640;2022-12-08T08:24:53;5.90;91.80
68691;DHT22;55675;49.588;8.640;2022-12-08T08:27:19;6.00;91.90
68691;DHT22;55675;49.588;8.640;2022-12-08T08:29:44;6.00;91.80
68691;DHT22;55675;49.588;8.640;2022-12-08T08:32:10;6.00;91.80
68691;DHT22;55675;49.588;8.640;2022-12-08T08:34:36;6.10;91.80
68691;DHT22;55675;49.588;8.640;2022-12-08T08:37:01;6.10;91.70
68691;DHT22;55675;49.588;8.640;2022-12-08T08:39:27;6.10;91.60
68691;DHT22;55675;49.588;8.640;2022-12-08T08:41:54;6.20;91.60
68691;DHT22;55675;49.588;8.640;2022-12-08T08:44:20;6.20;91.40
68691;DHT22;55675;49.588;8.640;2022-12-08T08:46:45;6.20;91.50
68691;DHT22;55675;49.588;8.640;2022-12-08T08:49:11;6.20;91.30
68691;DHT22;55675;49.588;8.640;2022-12-08T08:51:36;6.20;91.40
68691;DHT22;55675;49.588;8.640;2022-12-08T08:54:02;6.20;91.50
68691;DHT22;55675;49.588;8.640;2022-12-08T08:56:28;6.20;91.40
68691;DHT22;55675;49.588;8.640;2022-12-08T08:58:53;6.20;91.30
68691;DHT22;55675;49.588;8.640;2022-12-08T09:01:21;6.20;91.30
68691;DHT22;55675;49.588;8.640;2022-12-08T09:03:48;6.30;91.30
68691;DHT22;55675;49.588;8.640;2022-12-08T09:06:14;6.30;91.10
68691;DHT22;55675;49.588;8.640;2022-12-08T09:08:41;6.40;91.10
68691;DHT22;55675;49.588;8.640;2022-12-08T09:11:07;6.40;91.10
68691;DHT22;55675;49.588;8.640;2022-12-08T09:13:33;6.40;91.10
68691;DHT22;55675;49.588;8.640;2022-12-08T09:16:03;6.50;91.40
68691;DHT22;55675;49.588;8.640;2022-12-08T09:18:30;6.60;91.20
68691;DHT22;55675;49.588;8.640;2022-12-08T09:20:56;6.70;90.90
68691;DHT22;55675;49.588;8.640;2022-12-08T09:23:27;6.70;90.70
68691;DHT22;55675;49.588;8.640;2022-12-08T09:25:52;6.70;90.60
68691;DHT22;55675;49.588;8.640;2022-12-08T09:28:18;6.70;90.70
68691;DHT22;55675;49.588;8.640;2022-12-08T09:30:43;6.80;90.70
68691;DHT22;55675;49.588;8.640;2022-12-08T09:33:09;6.80;90.50
68691;DHT22;55675;49.588;8.640;2022-12-08T09:35:34;6.90;90.40
68691;DHT22;55675;49.588;8.640;2022-12-08T09:38:00;6.90;90.30
68691;DHT22;55675;49.588;8.640;2022-12-08T09:40:25;6.90;90.20
68691;DHT22;55675;49.588;8.640;2022-12-08T09:43:00;7.00;90.00
68691;DHT22;55675;49.588;8.640;2022-12-08T09:45:32;7.00;90.00
68691;DHT22;55675;49.588;8.640;2022-12-08T09:48:12;7.00;89.60
68691;DHT22;55675;49.588;8.640;2022-12-08T09:50:55;7.00;89.40
68691;DHT22;55675;49.588;8.640;2022-12-08T09:53:28;7.10;89.90
68691;DHT22;55675;49.588;8.640;2022-12-08T09:56:02;7.20;89.70
68691;DHT22;55675;49.588;8.640;2022-12-08T09:58:52;7.20;89.50
68691;DHT22;55675;49.588;8.640;2022-12-08T10:01:20;7.30;89.20
68691;DHT22;55675;49.588;8.640;2022-12-08T10:03:46;7.30;88.80
68691;DHT22;55675;49.588;8.640;2022-12-08T10:06:36;7.30;88.60
68691;DHT22;55675;49.588;8.640;2022-12-08T10:14:36;7.60;87.50
68691;DHT22;55675;49.588;8.640;2022-12-08T10:17:15;7.60;87.50
68691;DHT22;55675;49.588;8.640;2022-12-08T10:19:43;7.60;86.90
68691;DHT22;55675;49.588;8.640;2022-12-08T10:22:24;7.70;87.30
68691;DHT22;55675;49.588;8.640;2022-12-08T10:25:06;7.70;87.50
68691;DHT22;55675;49.588;8.640;2022-12-08T10:27:35;7.80;87.10
68691;DHT22;55675;49.588;8.640;2022-12-08T10:30:08;7.80;86.00
68691;DHT22;55675;49.588;8.640;2022-12-08T10:32:34;7.80;86.20
68691;DHT22;55675;49.588;8.640;2022-12-08T10:35:12;7.80;86.20
68691;DHT22;55675;49.588;8.640;2022-12-08T10:37:38;7.90;86.10
68691;DHT22;55675;49.588;8.640;2022-12-08T10:40:12;7.90;85.90
68691;DHT22;55675;49.588;8.640;2022-12-08T10:42:51;8.00;86.40
68691;DHT22;55675;49.588;8.640;2022-12-08T10:45:29;8.00;85.90
68691;DHT22;55675;49.588;8.640;2022-12-08T10:48:03;8.10;85.80
68691;DHT22;55675;49.588;8.640;2022-12-08T10:50:32;8.10;85.70
68691;DHT22;55675;49.588;8.640;2022-12-08T10:55:44;8.30;84.10
68691;DHT22;55675;49.588;8.640;2022-12-08T10:58:37;8.30;84.20
68691;DHT22;55675;49.588;8.640;2022-12-08T11:01:18;8.40;84.20
68691;DHT22;55675;49.588;8.640;2022-12-08T11:06:18;8.50;83.90
68691;DHT22;55675;49.588;8.640;2022-12-08T11:08:50;8.60;83.40
68691;DHT22;55675;49.588;8.640;2022-12-08T11:11:18;8.60;83.20
68691;DHT22;55675;49.588;8.640;2022-12-08T11:13:43;8.60;83.40
68691;DHT22;55675;49.588;8.640;2022-12-08T11:16:13;8.60;83.00
68691;DHT22;55675;49.588;8.640;2022-12-08T11:18:55;8.60;83.40
68691;DHT22;55675;49.588;8.640;2022-12-08T11:21:31;8.70;83.70
68691;DHT22;55675;49.588;8.640;2022-12-08T11:24:10;8.70;83.50
68691;DHT22;55675;49.588;8.640;2022-12-08T11:27:03;8.80;83.30
68691;DHT22;55675;49.588;8.640;2022-12-08T11:29:33;8.90;83.00
68691;DHT22;55675;49.588;8.640;2022-12-08T11:32:02;8.90;82.80
68691;DHT22;55675;49.588;8.640;2022-12-08T11:34:30;9.00;82.40
68691;DHT22;55675;49.588;8.640;2022-12-08T11:36:58;9.00;82.50
68691;DHT22;55675;49.588;8.640;2022-12-08T11:39:26;9.10;82.10
68691;DHT22;55675;49.588;8.640;2022-12-08T11:41:55;9.20;81.20
68691;DHT22;55675;49.588;8.640;2022-12-08T11:44:44;9.20;81.20
68691;DHT22;55675;49.588;8.640;2022-12-08T11:47:16;9.30;81.80
68691;DHT22;55675;49.588;8.640;2022-12-08T11:49:45;9.30;81.00
68691;DHT22;55675;49.588;8.640;2022-12-08T11:52:28;9.30;80.70
68691;DHT22;55675;49.588;8.640;2022-12-08T11:58:03;9.40;80.80
68691;DHT22;55675;49.588;8.640;2022-12-08T12:00:34;9.40;79.90
68691;DHT22;55675;49.588;8.640;2022-12-08T12:03:10;9.30;79.80
68691;DHT22;55675;49.588;8.640;2022-12-08T12:05:55;9.30;79.80
68691;DHT22;55675;49.588;8.640;2022-12-08T12:11:28;9.10;80.60
68691;DHT22;55675;49.588;8.640;2022-12-08T12:17:40;8.90;80.50
68691;DHT22;55675;49.588;8.640;2022-12-08T12:20:29;8.90;80.80
68691;DHT22;55675;49.588;8.640;2022-12-08T12:23:01;8.90;81.30
68691;DHT22;55675;49.588;8.640;2022-12-08T12:25:31;8.90;80.60
68691;DHT22;55675;49.588;8.640;2022-12-08T12:28:04;8.90;80.50
68691;DHT22;55675;49.588;8.640;2022-12-08T12:31:00;8.90;80.70
68691;DHT22;55675;49.588;8.640;2022-12-08T12:33:28;8.90;81.00
68691;DHT22;55675;49.588;8.640;2022-12-08T12:35:56;8.90;81.10
68691;DHT22;55675;49.588;8.640;2022-12-08T12:44:22;8.90;80.50
68691;DHT22;55675;49.588;8.640;2022-12-08T12:54:29;8.70;80.40
68691;DHT22;55675;49.588;8.640;2022-12-08T12:57:20;8.70;80.50
68691;DHT22;55675;49.588;8.640;2022-12-08T13:00:04;8.70;80.90
68691;DHT22;55675;49.588;8.640;2022-12-08T13:05:28;8.80;80.80
68691;DHT22;55675;49.588;8.640;2022-12-08T13:08:01;8.70;80.40
68691;DHT22;55675;49.588;8.640;2022-12-08T13:10:31;8.80;80.70
68691;DHT22;55675;49.588;8.640;2022-12-08T13:15:35;8.70;80.60
68691;DHT22;55675;49.588;8.640;2022-12-08T13:18:02;8.80;80.90
68691;DHT22;55675;49.588;8.640;2022-12-08T13:20:28;8.70;80.60
68691;DHT22;55675;49.588;8.640;2022-12-08T13:23:24;8.70;80.40
68691;DHT22;55675;49.588;8.640;2022-12-08T13:25:52;8.60;80.50
68691;DHT22;55675;49.588;8.640;2022-12-08T13:28:19;8.60;80.80
68691;DHT22;55675;49.588;8.640;2022-12-08T13:30:51;8.70;81.00
68691;DHT22;55675;49.588;8.640;2022-12-08T13:33:44;8.70;80.90
68691;DHT22;55675;49.588;8.640;2022-12-08T13:36:28;8.70;80.50
68691;DHT22;55675;49.588;8.640;2022-12-08T13:38:57;8.70;80.40
68691;DHT22;55675;49.588;8.640;2022-12-08T13:41:32;8.60;81.40
68691;DHT22;55675;49.588;8.640;2022-12-08T13:44:05;8.60;81.00
68691;DHT22;55675;49.588;8.640;2022-12-08T13:46:44;8.50;81.20
68691;DHT22;55675;49.588;8.640;2022-12-08T13:49:17;8.50;81.10
68691;DHT22;55675;49.588;8.640;2022-12-08T13:51:47;8.60;80.90
68691;DHT22;55675;49.588;8.640;2022-12-08T13:54:20;8.60;80.20
68691;DHT22;55675;49.588;8.640;2022-12-08T13:56:50;8.60;80.20
68691;DHT22;55675;49.588;8.640;2022-12-08T14:01:47;8.50;80.80
68691;DHT22;55675;49.588;8.640;2022-12-08T14:04:17;8.40;81.00
68691;DHT22;55675;49.588;8.640;2022-12-08T14:06:46;8.40;81.10
68691;DHT22;55675;49.588;8.640;2022-12-08T14:09:26;8.40;81.60
68691;DHT22;55675;49.588;8.640;2022-12-08T14:12:01;8.30;81.50
68691;DHT22;55675;49.588;8.640;2022-12-08T14:14:37;8.30;82.00
68691;DHT22;55675;49.588;8.640;2022-12-08T14:17:08;8.20;82.00
68691;DHT22;55675;49.588;8.640;2022-12-08T14:19:34;8.10;82.10
68691;DHT22;55675;49.588;8.640;2022-12-08T14:22:01;8.10;82.10
68691;DHT22;55675;49.588;8.640;2022-12-08T14:24:29;8.00;82.50
68691;DHT22;55675;49.588;8.640;2022-12-08T14:27:04;8.00;82.60
68691;DHT22;55675;49.588;8.640;2022-12-08T14:34:41;7.80;83.50
68691;DHT22;55675;49.588;8.640;2022-12-08T14:37:11;7.70;83.50
68691;DHT22;55675;49.588;8.640;2022-12-08T14:39:37;7.70;83.70
68691;DHT22;55675;49.588;8.640;2022-12-08T14:42:04;7.70;83.80
68691;DHT22;55675;49.588;8.640;2022-12-08T14:44:32;7.70;84.00
68691;DHT22;55675;49.588;8.640;2022-12-08T14:47:09;7.60;84.50
68691;DHT22;55675;49.588;8.640;2022-12-08T14:49:38;7.60;84.70
68691;DHT22;55675;49.588;8.640;2022-12-08T14:52:09;7.60;84.40
68691;DHT22;55675;49.588;8.640;2022-12-08T14:54:36;7.60;84.30
68691;DHT22;55675;49.588;8.640;2022-12-08T14:57:03;7.50;84.40
68691;DHT22;55675;49.588;8.640;2022-12-08T14:59:30;7.40;84.50
68691;DHT22;55675;49.588;8.640;2022-12-08T15:04:38;7.20;85.00
68691;DHT22;55675;49.588;8.640;2022-12-08T15:07:17;7.10;85.40
68691;DHT22;55675;49.588;8.640;2022-12-08T15:09:46;7.00;85.70
68691;DHT22;55675;49.588;8.640;2022-12-08T15:14:42;6.90;86.20
68691;DHT22;55675;49.588;8.640;2022-12-08T15:17:40;6.90;86.30
68691;DHT22;55675;49.588;8.640;2022-12-08T15:20:27;6.80;86.60
68691;DHT22;55675;49.588;8.640;2022-12-08T15:22:55;6.70;86.90
68691;DHT22;55675;49.588;8.640;2022-12-08T15:25:22;6.70;87.30
68691;DHT22;55675;49.588;8.640;2022-12-08T15:27:48;6.70;87.50
68691;DHT22;55675;49.588;8.640;2022-12-08T15:30:16;6.70;87.90
68691;DHT22;55675;49.588;8.640;2022-12-08T15:32:41;6.60;88.10
68691;DHT22;55675;49.588;8.640;2022-12-08T15:35:14;6.60;88.40
68691;DHT22;55675;49.588;8.640;2022-12-08T15:37:40;6.60;88.50
68691;DHT22;55675;49.588;8.640;2022-12-08T15:40:09;6.60;88.60
68691;DHT22;55675;49.588;8.640;2022-12-08T15:42:35;6.70;88.80
68691;DHT22;55675;49.588;8.640;2022-12-08T15:45:00;6.70;88.80
68691;DHT22;55675;49.588;8.640;2022-12-08T15:47:26;6.70;88.90
68691;DHT22;55675;49.588;8.640;2022-12-08T15:49:52;6.70;89.00
68691;DHT22;55675;49.588;8.640;2022-12-08T15:52:23;6.70;89.00
68691;DHT22;55675;49.588;8.640;2022-12-08T15:54:49;6.70;88.90
68691;DHT22;55675;49.588;8.640;2022-12-08T15:57:26;6.70;88.90
68691;DHT22;55675;49.588;8.640;2022-12-08T15:59:53;6.70;88.80
68691;DHT22;55675;49.588;8.640;2022-12-08T16:02:18;6.70;89.10
68691;DHT22;55675;49.588;8.640;2022-12-08T16:04:45;6.70;89.10
68691;DHT22;55675;49.588;8.640;2022-12-08T16:07:29;6.70;88.90
68691;DHT22;55675;49.588;8.640;2022-12-08T16:09:55;6.70;89.00
68691;DHT22;55675;49.588;8.640;2022-12-08T16:12:23;6.70;89.00
68691;DHT22;55675;49.588;8.640;2022-12-08T16:15:09;6.70;89.10
68691;DHT22;55675;49.588;8.640;2022-12-08T16:17:35;6.70;89.10
68691;DHT22;55675;49.588;8.640;2022-12-08T16:20:03;6.70;89.40
68691;DHT22;55675;49.588;8.640;2022-12-08T16:22:31;6.70;89.40
68691;DHT22;55675;49.588;8.640;2022-12-08T16:24:57;6.70;89.50
68691;DHT22;55675;49.588;8.640;2022-12-08T16:27:26;6.60;89.60
68691;DHT22;55675;49.588;8.640;2022-12-08T16:29:52;6.60;89.60
68691;DHT22;55675;49.588;8.640;2022-12-08T16:32:18;6.60;89.60
68691;DHT22;55675;49.588;8.640;2022-12-08T16:34:44;6.70;89.70
68691;DHT22;55675;49.588;8.640;2022-12-08T16:37:17;6.70;89.60
68691;DHT22;55675;49.588;8.640;2022-12-08T16:39:43;6.70;89.60
68691;DHT22;55675;49.588;8.640;2022-12-08T16:42:14;6.60;89.60
68691;DHT22;55675;49.588;8.640;2022-12-08T16:45:02;6.70;89.70
68691;DHT22;55675;49.588;8.640;2022-12-08T16:47:27;6.70;89.40
68691;DHT22;55675;49.588;8.640;2022-12-08T16:49:53;6.70;89.20
68691;DHT22;55675;49.588;8.640;2022-12-08T16:52:18;6.80;89.30
68691;DHT22;55675;49.588;8.640;2022-12-08T16:54:44;6.80;89.40
68691;DHT22;55675;49.588;8.640;2022-12-08T16:57:09;6.70;89.30
68691;DHT22;55675;49.588;8.640;2022-12-08T16:59:37;6.80;89.40
68691;DHT22;55675;49.588;8.640;2022-12-08T17:02:02;6.80;89.20
68691;DHT22;55675;49.588;8.640;2022-12-08T17:04:29;6.70;89.10
68691;DHT22;55675;49.588;8.640;2022-12-08T17:06:55;6.70;89.10
68691;DHT22;55675;49.588;8.640;2022-12-08T17:09:22;6.70;89.00
68691;DHT22;55675;49.588;8.640;2022-12-08T17:11:47;6.70;89.00
68691;DHT22;55675;49.588;8.640;2022-12-08T17:14:13;6.70;89.10
68691;DHT22;55675;49.588;8.640;2022-12-08T17:16:39;6.70;89.00